Time;durP1;ratioP1;P1;durP2;ratioP2;P2;SDS_P1;SDS_P2;PMS_P1;PMS_P2;Temp;Humidity;BMP_temperature;BMP_pressure;BME280_temperature;BME280_humidity;BME280_pressure;Samples;Min_cycle;Max_cycle;Signal;HPM_P1;HPM_P2
2021/10/22 00:00:23;;;;;;;12.75;3.40;;;8.20;99.90;;;;;;5014898;28;20629;-85
2021/10/22 00:02:48;;;;;;;10.98;3.55;;;8.30;99.90;;;;;;5014531;28;20220;-84
2021/10/22 00:05:14;;;;;;;11.85;3.28;;;8.30;99.90;;;;;;5015007;28;20567;-85
2021/10/22 00:07:40;;;;;;;5.72;2.67;;;8.30;99.90;;;;;;5014998;28;20195;-84
2021/10/22 00:10:07;;;;;;;6.47;2.92;;;8.30;99.90;;;;;;5014586;28;20181;-84
2021/10/22 00:12:33;;;;;;;5.78;2.50;;;8.30;99.90;;;;;;5013352;28;20191;-85
2021/10/22 00:14:59;;;;;;;14.35;3.22;;;8.30;99.90;;;;;;5013320;28;20196;-84
2021/10/22 00:17:25;;;;;;;18.65;3.33;;;8.30;99.90;;;;;;5014353;28;20249;-84
2021/10/22 00:19:51;;;;;;;13.98;4.10;;;8.30;99.90;;;;;;5013897;28;20218;-84
2021/10/22 00:22:16;;;;;;;11.43;3.70;;;8.20;99.90;;;;;;5013061;28;20173;-83
2021/10/22 00:24:42;;;;;;;14.00;3.47;;;8.20;99.90;;;;;;5013063;28;20640;-84
2021/10/22 00:27:08;;;;;;;22.17;3.13;;;8.10;99.90;;;;;;5013881;28;20334;-84
2021/10/22 00:29:34;;;;;;;15.02;2.75;;;8.10;99.90;;;;;;5014192;28;20199;-84
2021/10/22 00:32:00;;;;;;;11.52;2.80;;;8.10;99.90;;;;;;5012958;28;20640;-83
2021/10/22 00:34:28;;;;;;;8.57;2.58;;;8.20;99.90;;;;;;5014155;28;20169;-84
2021/10/22 00:36:53;;;;;;;5.40;2.83;;;8.30;99.90;;;;;;5014330;28;20199;-84
2021/10/22 00:39:19;;;;;;;5.90;2.63;;;8.20;99.90;;;;;;5012588;28;20187;-83
2021/10/22 00:41:46;;;;;;;14.68;3.15;;;8.10;99.90;;;;;;5013890;28;20227;-83
2021/10/22 00:44:12;;;;;;;16.48;3.28;;;8.30;99.90;;;;;;5012281;28;20168;-84
2021/10/22 00:46:40;;;;;;;24.60;3.75;;;8.40;99.90;;;;;;5013375;28;20681;-83
2021/10/22 00:49:08;;;;;;;9.77;3.03;;;8.40;99.90;;;;;;5013505;28;20603;-84
2021/10/22 00:51:35;;;;;;;18.80;3.00;;;8.30;99.90;;;;;;5012486;28;20168;-84
2021/10/22 00:54:04;;;;;;;12.90;2.72;;;8.20;99.90;;;;;;5012435;28;20213;-82
2021/10/22 00:56:30;;;;;;;18.02;3.33;;;8.10;99.90;;;;;;5012181;28;20208;-84
2021/10/22 00:58:56;;;;;;;9.35;2.40;;;8.10;99.90;;;;;;5013194;28;20232;-83
2021/10/22 01:01:22;;;;;;;7.90;3.40;;;7.80;99.90;;;;;;5013723;28;20530;-83
2021/10/22 01:03:48;;;;;;;22.23;3.53;;;7.90;99.90;;;;;;5013457;28;20160;-84
2021/10/22 01:06:13;;;;;;;14.13;3.00;;;7.80;99.90;;;;;;5013612;28;20527;-84
2021/10/22 01:08:39;;;;;;;9.60;3.00;;;7.70;99.90;;;;;;5013562;28;20649;-83
2021/10/22 01:11:05;;;;;;;13.32;2.90;;;7.70;99.90;;;;;;5011991;28;20174;-84
2021/10/22 01:13:31;;;;;;;9.65;2.95;;;7.70;99.90;;;;;;5013756;28;20175;-84
2021/10/22 01:15:57;;;;;;;11.70;3.03;;;7.90;99.90;;;;;;5013563;28;20184;-84
2021/10/22 01:18:27;;;;;;;14.57;2.35;;;8.00;99.90;;;;;;5013376;28;20683;-82
2021/10/22 01:21:03;;;;;;;12.40;2.92;;;8.00;99.90;;;;;;5012237;28;20183;-84
2021/10/22 01:23:29;;;;;;;17.17;2.72;;;7.90;99.90;;;;;;5011815;28;20172;-83
2021/10/22 01:25:55;;;;;;;12.98;3.28;;;7.90;99.90;;;;;;5012134;28;20177;-84
2021/10/22 01:28:21;;;;;;;14.05;3.30;;;7.80;99.90;;;;;;5013006;28;20195;-84
2021/10/22 01:30:48;;;;;;;15.27;3.63;;;7.80;99.90;;;;;;5011879;28;20164;-84
2021/10/22 01:33:17;;;;;;;9.85;2.40;;;7.90;99.90;;;;;;5011897;28;20169;-84
2021/10/22 01:35:46;;;;;;;8.40;2.78;;;7.80;99.90;;;;;;5013262;28;20160;-84
2021/10/22 01:38:18;;;;;;;14.63;3.40;;;7.80;99.90;;;;;;5011620;28;20294;-84
2021/10/22 01:40:44;;;;;;;9.23;2.70;;;7.80;99.90;;;;;;5011812;28;20176;-84
2021/10/22 01:43:10;;;;;;;15.43;2.90;;;7.90;99.90;;;;;;5013039;28;20170;-83
2021/10/22 01:45:36;;;;;;;22.10;2.78;;;8.00;99.90;;;;;;5013468;28;20717;-83
2021/10/22 01:48:02;;;;;;;9.25;2.83;;;7.80;99.90;;;;;;5013077;28;20202;-83
2021/10/22 01:50:28;;;;;;;7.22;2.30;;;8.00;99.90;;;;;;5011790;28;20204;-83
2021/10/22 01:52:54;;;;;;;6.35;2.95;;;8.00;99.90;;;;;;5011869;28;20208;-83
2021/10/22 01:55:20;;;;;;;10.05;2.20;;;8.10;99.90;;;;;;5013120;28;20173;-84
2021/10/22 01:57:45;;;;;;;8.00;2.42;;;8.00;99.90;;;;;;5011792;28;20224;-83
2021/10/22 02:00:11;;;;;;;13.02;3.03;;;7.80;99.90;;;;;;5011550;28;20169;-84
2021/10/22 02:02:37;;;;;;;18.65;2.28;;;7.70;99.90;;;;;;5012882;28;20632;-84
2021/10/22 02:05:03;;;;;;;7.95;3.03;;;7.80;99.90;;;;;;5014086;28;20215;-84
2021/10/22 02:07:29;;;;;;;13.70;2.58;;;7.80;99.90;;;;;;5015498;28;20184;-82
2021/10/22 02:09:55;;;;;;;13.70;2.65;;;7.80;99.90;;;;;;5016707;28;20203;-84
2021/10/22 02:12:20;;;;;;;7.75;2.45;;;7.90;99.90;;;;;;5016692;28;20175;-84
2021/10/22 02:14:46;;;;;;;12.25;2.83;;;7.70;99.90;;;;;;5016558;28;20242;-83
2021/10/22 02:17:12;;;;;;;5.60;1.77;;;7.80;99.90;;;;;;5015675;28;20208;-85
2021/10/22 02:19:37;;;;;;;14.77;2.63;;;7.60;99.90;;;;;;5016067;28;20207;-83
2021/10/22 02:22:03;;;;;;;19.42;2.45;;;7.60;99.90;;;;;;5016363;28;20175;-84
2021/10/22 02:24:29;;;;;;;10.57;3.08;;;7.70;99.90;;;;;;5016422;28;20200;-84
2021/10/22 02:26:54;;;;;;;9.40;2.15;;;7.80;99.90;;;;;;5016392;28;20175;-83
2021/10/22 02:29:20;;;;;;;5.75;2.05;;;7.90;99.90;;;;;;5016250;28;20210;-83
2021/10/22 02:31:46;;;;;;;4.63;1.88;;;7.90;99.90;;;;;;5016606;28;20158;-84
2021/10/22 02:34:12;;;;;;;15.50;2.15;;;7.90;99.90;;;;;;5015784;28;20180;-81
2021/10/22 02:36:38;;;;;;;13.35;2.50;;;7.80;99.90;;;;;;5016321;28;20287;-83
2021/10/22 02:39:04;;;;;;;11.27;1.60;;;7.90;99.90;;;;;;5016461;28;20195;-84
2021/10/22 02:41:30;;;;;;;8.32;1.83;;;7.80;99.90;;;;;;5016038;28;20171;-83
2021/10/22 02:43:56;;;;;;;9.05;1.55;;;7.90;99.90;;;;;;5016086;28;20165;-83
2021/10/22 02:46:21;;;;;;;12.50;2.25;;;7.80;99.90;;;;;;5016151;28;20578;-83
2021/10/22 02:48:47;;;;;;;3.72;2.05;;;7.90;99.90;;;;;;5015673;28;20680;-83
2021/10/22 02:51:13;;;;;;;14.50;2.65;;;7.90;99.90;;;;;;5015975;28;20172;-84
2021/10/22 02:53:38;;;;;;;6.55;1.63;;;7.90;99.90;;;;;;5015738;28;20231;-84
2021/10/22 02:56:05;;;;;;;10.07;1.67;;;7.80;99.90;;;;;;5014884;28;20629;-84
2021/10/22 02:58:31;;;;;;;17.00;2.15;;;7.80;99.90;;;;;;5014364;28;20246;-83
2021/10/22 03:00:56;;;;;;;10.77;2.00;;;7.80;99.90;;;;;;5016172;28;20648;-84
2021/10/22 03:03:22;;;;;;;7.50;2.00;;;7.80;99.90;;;;;;5015163;28;20184;-84
2021/10/22 03:05:48;;;;;;;9.07;2.00;;;7.80;99.90;;;;;;5013704;28;20503;-85
2021/10/22 03:08:13;;;;;;;18.58;2.63;;;7.60;99.90;;;;;;5014076;28;20196;-84
2021/10/22 03:10:39;;;;;;;9.35;2.00;;;7.50;99.90;;;;;;5014018;28;20212;-83
2021/10/22 03:13:05;;;;;;;7.75;1.63;;;7.70;99.90;;;;;;5015587;28;20586;-84
2021/10/22 03:15:30;;;;;;;14.45;2.63;;;7.70;99.90;;;;;;5015448;28;20429;-83
2021/10/22 03:17:56;;;;;;;15.27;1.80;;;7.50;99.90;;;;;;5013884;28;20299;-82
2021/10/22 03:20:22;;;;;;;15.15;2.40;;;7.40;99.90;;;;;;5014992;28;20164;-84
2021/10/22 03:22:48;;;;;;;5.00;2.00;;;7.60;99.90;;;;;;5015140;28;20172;-83
2021/10/22 03:25:14;;;;;;;10.52;2.17;;;7.60;99.90;;;;;;5015221;28;20172;-84
2021/10/22 03:27:41;;;;;;;8.63;2.25;;;7.60;99.90;;;;;;5014190;28;20204;-82
2021/10/22 03:30:08;;;;;;;16.40;2.15;;;7.50;99.90;;;;;;5014819;28;20210;-85
2021/10/22 03:32:34;;;;;;;13.43;2.15;;;7.50;99.90;;;;;;5015792;28;20216;-85
2021/10/22 03:35:01;;;;;;;13.45;2.55;;;7.40;99.90;;;;;;5014436;28;20196;-85
2021/10/22 03:37:27;;;;;;;7.93;2.40;;;7.40;99.90;;;;;;5015545;28;21161;-86
2021/10/22 03:39:53;;;;;;;5.47;2.10;;;7.40;99.90;;;;;;5015380;28;20215;-86
2021/10/22 03:42:19;;;;;;;7.22;2.00;;;7.50;99.90;;;;;;5014769;28;20184;-86
2021/10/22 03:44:44;;;;;;;13.23;2.13;;;7.60;99.90;;;;;;5014089;28;20526;-86
2021/10/22 03:47:10;;;;;;;8.63;1.75;;;7.40;99.90;;;;;;5014138;28;20164;-85
2021/10/22 03:49:36;;;;;;;3.70;1.45;;;7.50;99.90;;;;;;5014869;28;20556;-86
2021/10/22 03:52:01;;;;;;;7.68;2.08;;;7.50;99.90;;;;;;5014811;28;20184;-85
2021/10/22 03:54:27;;;;;;;5.68;1.65;;;7.70;99.90;;;;;;5014701;28;20556;-86
2021/10/22 03:56:53;;;;;;;6.18;2.13;;;7.60;99.90;;;;;;5013614;28;20258;-86
2021/10/22 03:59:18;;;;;;;9.25;2.10;;;7.50;99.90;;;;;;5015091;28;20231;-85
2021/10/22 04:01:45;;;;;;;6.47;1.65;;;7.60;99.90;;;;;;5014988;28;20271;-86
2021/10/22 04:04:12;;;;;;;10.63;2.63;;;7.70;99.90;;;;;;5013526;28;20578;-85
2021/10/22 04:06:38;;;;;;;8.93;2.00;;;7.80;99.90;;;;;;5014749;28;20165;-85
2021/10/22 04:09:04;;;;;;;14.35;2.10;;;7.60;99.90;;;;;;5014404;28;20693;-85
2021/10/22 04:11:30;;;;;;;6.50;1.73;;;7.60;99.90;;;;;;5014806;28;20172;-82
2021/10/22 04:13:56;;;;;;;6.72;1.95;;;7.80;99.90;;;;;;5014740;28;20700;-84
2021/10/22 04:16:23;;;;;;;8.85;2.25;;;7.80;99.90;;;;;;5014660;28;20694;-83
2021/10/22 04:18:49;;;;;;;6.95;1.67;;;7.80;99.90;;;;;;5016982;28;20192;-85
2021/10/22 04:21:15;;;;;;;8.40;1.98;;;7.50;99.90;;;;;;5014462;28;20180;-81
2021/10/22 04:23:40;;;;;;;9.98;1.90;;;7.50;99.90;;;;;;5017423;28;20174;-85
2021/10/22 04:26:06;;;;;;;4.25;1.98;;;7.30;99.90;;;;;;5018988;28;20570;-85
2021/10/22 04:28:32;;;;;;;16.75;3.08;;;7.20;99.90;;;;;;5014748;28;20186;-85
2021/10/22 04:30:58;;;;;;;8.68;2.08;;;7.10;99.90;;;;;;5013213;28;20580;-85
2021/10/22 04:33:23;;;;;;;15.43;2.33;;;7.20;99.90;;;;;;5017579;28;20230;-83
2021/10/22 04:35:49;;;;;;;7.65;2.28;;;7.20;99.90;;;;;;5014074;28;20176;-85
2021/10/22 04:40:48;;;;;;;7.20;2.00;;;7.40;99.90;;;;;;5014426;28;20172;-86
2021/10/22 04:43:16;;;;;;;7.28;2.17;;;7.30;99.90;;;;;;5013953;28;20165;-84
2021/10/22 04:45:44;;;;;;;3.53;2.67;;;7.30;99.90;;;;;;5013031;28;20202;-84
2021/10/22 04:48:12;;;;;;;8.02;2.40;;;7.40;99.90;;;;;;5013832;28;20212;-85
2021/10/22 04:50:45;;;;;;;5.35;2.45;;;7.40;99.90;;;;;;5014130;28;20759;-85
2021/10/22 04:53:11;;;;;;;6.45;2.75;;;7.50;99.90;;;;;;5012822;28;20164;-85
2021/10/22 04:55:40;;;;;;;7.53;2.42;;;7.50;99.90;;;;;;5013069;28;20180;-83
2021/10/22 04:58:07;;;;;;;11.98;2.25;;;7.30;99.90;;;;;;5012180;28;20219;-86
2021/10/22 05:00:32;;;;;;;6.55;2.40;;;7.30;99.90;;;;;;5013794;28;20171;-83
2021/10/22 05:02:58;;;;;;;6.00;2.72;;;7.20;99.90;;;;;;5013297;28;20172;-83
2021/10/22 05:05:24;;;;;;;6.68;2.30;;;7.30;99.90;;;;;;5012416;28;20646;-84
2021/10/22 05:07:49;;;;;;;5.80;2.28;;;7.30;99.90;;;;;;5011884;28;20210;-84
2021/10/22 05:10:15;;;;;;;6.90;2.72;;;7.30;99.90;;;;;;5014080;28;20164;-83
2021/10/22 05:12:41;;;;;;;2.80;1.85;;;7.50;99.90;;;;;;5012099;28;20181;-83
2021/10/22 05:15:08;;;;;;;10.93;2.67;;;7.40;99.90;;;;;;5012761;28;20566;-84
2021/10/22 05:17:34;;;;;;;16.88;2.22;;;7.40;99.90;;;;;;5013018;28;20212;-84
2021/10/22 05:20:00;;;;;;;17.90;2.90;;;7.40;99.90;;;;;;5013399;28;20239;-84
2021/10/22 05:22:27;;;;;;;7.80;2.53;;;7.50;99.90;;;;;;5013141;28;20211;-84
2021/10/22 05:24:52;;;;;;;8.20;1.92;;;7.60;99.90;;;;;;5013643;28;20215;-84
2021/10/22 05:27:18;;;;;;;8.75;2.33;;;7.50;99.90;;;;;;5011666;28;20572;-83
2021/10/22 05:29:44;;;;;;;6.88;2.20;;;7.30;99.90;;;;;;5014395;28;20310;-83
2021/10/22 05:32:10;;;;;;;8.00;2.42;;;7.30;99.90;;;;;;5034630;28;20169;-83
2021/10/22 05:34:36;;;;;;;5.07;2.10;;;7.40;99.90;;;;;;5027040;28;20191;-84
2021/10/22 05:37:02;;;;;;;13.13;2.30;;;7.40;99.90;;;;;;5017279;28;20204;-85
2021/10/22 05:39:28;;;;;;;9.00;2.17;;;7.50;99.90;;;;;;5012689;28;20274;-86
2021/10/22 05:41:54;;;;;;;8.43;2.08;;;7.30;99.90;;;;;;5014360;28;20260;-85
2021/10/22 05:44:20;;;;;;;5.93;1.95;;;7.30;99.90;;;;;;5014431;28;20188;-85
2021/10/22 05:46:52;;;;;;;5.43;2.10;;;7.50;99.90;;;;;;5013669;28;20169;-85
2021/10/22 05:49:19;;;;;;;9.13;1.67;;;7.40;99.90;;;;;;5013163;28;20196;-85
2021/10/22 05:51:45;;;;;;;3.78;1.88;;;7.40;99.90;;;;;;5012335;28;20157;-85
2021/10/22 05:54:11;;;;;;;7.90;2.20;;;7.40;99.90;;;;;;5013516;28;20193;-85
2021/10/22 05:56:37;;;;;;;7.30;2.15;;;7.50;99.90;;;;;;5013801;28;20370;-81
2021/10/22 05:59:02;;;;;;;10.82;2.17;;;7.40;99.90;;;;;;5013515;28;20185;-84
2021/10/22 06:01:28;;;;;;;4.47;1.58;;;7.40;99.90;;;;;;5014086;28;20231;-85
2021/10/22 06:03:55;;;;;;;8.90;2.47;;;7.20;99.90;;;;;;5013557;28;20534;-83
2021/10/22 06:06:20;;;;;;;4.03;1.95;;;7.20;99.90;;;;;;5011905;28;20172;-86
2021/10/22 06:08:46;;;;;;;4.07;1.63;;;7.30;99.90;;;;;;5015190;28;20242;-84
2021/10/22 06:11:12;;;;;;;4.22;1.58;;;7.30;99.90;;;;;;5012492;28;20165;-82
2021/10/22 06:13:39;;;;;;;6.65;1.90;;;7.30;99.90;;;;;;5011596;28;20717;-83
2021/10/22 06:16:05;;;;;;;8.00;1.80;;;7.20;99.90;;;;;;5011808;28;20254;-86
2021/10/22 06:18:32;;;;;;;4.28;1.67;;;7.10;99.90;;;;;;5013776;28;20195;-85
2021/10/22 06:21:03;;;;;;;13.40;2.25;;;7.20;99.90;;;;;;5014351;28;20179;-85
2021/10/22 06:26:14;;;;;;;10.60;2.17;;;7.30;99.90;;;;;;5013586;28;20247;-85
2021/10/22 06:28:40;;;;;;;6.50;2.15;;;7.40;99.90;;;;;;5013847;28;20197;-87
2021/10/22 06:31:06;;;;;;;5.05;2.08;;;7.30;99.90;;;;;;5013231;28;20187;-86
2021/10/22 06:33:32;;;;;;;6.82;2.00;;;7.30;99.90;;;;;;5011361;28;20612;-84
2021/10/22 06:35:58;;;;;;;8.35;2.00;;;7.20;99.90;;;;;;5012834;28;20164;-85
2021/10/22 06:38:24;;;;;;;7.35;2.40;;;7.30;99.90;;;;;;5012803;28;20208;-89
2021/10/22 06:40:53;;;;;;;6.93;2.20;;;7.50;99.90;;;;;;5013143;28;20211;-85
2021/10/22 06:43:20;;;;;;;12.40;2.45;;;7.40;99.90;;;;;;5013402;28;20196;-88
2021/10/22 06:45:47;;;;;;;9.90;2.83;;;7.30;99.90;;;;;;5013026;28;20165;-86
2021/10/22 06:48:13;;;;;;;12.63;1.88;;;7.40;99.90;;;;;;5012925;28;20299;-86
2021/10/22 06:50:38;;;;;;;7.38;2.30;;;7.50;99.90;;;;;;5013677;28;20542;-94
2021/10/22 06:53:04;;;;;;;7.45;2.40;;;7.50;99.90;;;;;;5015375;28;20197;-81
2021/10/22 06:55:29;;;;;;;15.07;3.30;;;7.50;99.90;;;;;;5012813;28;20652;-79
2021/10/22 06:57:55;;;;;;;8.85;2.70;;;7.60;99.90;;;;;;5014633;28;20208;-88
2021/10/22 07:00:21;;;;;;;7.95;2.20;;;7.60;99.90;;;;;;5025027;28;20200;-80
2021/10/22 07:02:52;;;;;;;9.98;3.05;;;7.60;99.90;;;;;;5033183;28;20174;-78
2021/10/22 07:05:47;;;;;;;6.68;1.98;;;7.50;99.90;;;;;;5022412;28;20220;-81
2021/10/22 07:08:13;;;;;;;4.97;2.25;;;7.50;99.90;;;;;;5016618;28;20220;-82
2021/10/22 07:10:39;;;;;;;3.67;1.95;;;7.60;99.90;;;;;;5014591;28;20605;-87
2021/10/22 07:13:06;;;;;;;4.03;2.40;;;7.70;99.90;;;;;;5015557;28;20157;-77
2021/10/22 07:15:32;;;;;;;15.80;2.55;;;7.90;99.90;;;;;;5015272;28;20686;-77
2021/10/22 07:18:00;;;;;;;4.18;1.92;;;7.90;99.90;;;;;;5015377;28;20299;-77
2021/10/22 07:20:27;;;;;;;10.05;1.98;;;8.00;99.90;;;;;;5015570;28;20179;-77
2021/10/22 07:23:11;;;;;;;4.70;2.40;;;7.90;99.90;;;;;;5014954;28;20263;-77
2021/10/22 07:25:40;;;;;;;18.45;3.13;;;8.00;99.90;;;;;;5015058;28;20175;-77
2021/10/22 07:28:13;;;;;;;10.43;3.25;;;8.00;99.90;;;;;;5014793;28;20212;-77
2021/10/22 07:30:44;;;;;;;5.63;2.47;;;8.20;99.90;;;;;;5014718;28;20260;-77
2021/10/22 07:33:10;;;;;;;5.93;2.35;;;8.10;99.90;;;;;;5014544;28;20173;-77
2021/10/22 07:35:38;;;;;;;8.18;2.92;;;8.10;99.90;;;;;;5014730;28;20173;-77
2021/10/22 07:38:04;;;;;;;10.40;2.10;;;8.30;99.90;;;;;;5013399;28;20729;-77
2021/10/22 07:40:30;;;;;;;11.80;2.70;;;8.30;99.90;;;;;;5014565;28;20168;-77
2021/10/22 07:42:56;;;;;;;11.15;2.10;;;8.50;99.90;;;;;;5012869;28;20176;-77
2021/10/22 07:45:22;;;;;;;7.25;2.33;;;8.40;99.90;;;;;;5013735;28;20171;-77
2021/10/22 07:47:48;;;;;;;6.13;1.95;;;8.40;99.90;;;;;;5014071;28;20196;-77
2021/10/22 07:50:13;;;;;;;2.53;1.42;;;8.40;99.90;;;;;;5014394;28;20199;-77
2021/10/22 07:52:39;;;;;;;8.10;2.42;;;8.40;99.90;;;;;;5014197;28;20165;-77
2021/10/22 07:55:06;;;;;;;8.82;2.75;;;8.50;99.90;;;;;;5014085;28;20172;-77
2021/10/22 07:57:32;;;;;;;5.57;1.83;;;8.60;99.90;;;;;;5013481;28;20208;-77
2021/10/22 07:59:59;;;;;;;5.80;2.72;;;8.70;99.90;;;;;;5014086;28;20175;-77
2021/10/22 08:02:25;;;;;;;8.63;2.88;;;8.70;99.90;;;;;;5013448;28;20164;-77
2021/10/22 08:04:52;;;;;;;12.68;2.13;;;8.70;99.90;;;;;;5013465;28;20160;-77
2021/10/22 08:07:21;;;;;;;7.90;2.15;;;8.70;99.90;;;;;;5013613;28;20171;-77
2021/10/22 08:09:48;;;;;;;7.78;2.88;;;8.80;99.90;;;;;;5012438;28;20191;-77
2021/10/22 08:12:15;;;;;;;7.15;2.10;;;8.80;99.90;;;;;;5014006;28;20157;-77
2021/10/22 08:14:42;;;;;;;15.40;2.58;;;8.90;99.90;;;;;;5012513;28;20211;-77
2021/10/22 08:17:11;;;;;;;9.02;2.53;;;9.00;99.90;;;;;;5012467;28;20564;-77
2021/10/22 08:19:37;;;;;;;8.98;2.75;;;9.00;99.90;;;;;;5013376;28;20188;-77
2021/10/22 08:24:35;;;;;;;8.23;2.78;;;9.30;99.90;;;;;;5013544;28;20203;-77
2021/10/22 08:27:01;;;;;;;7.80;2.05;;;9.40;99.90;;;;;;5013658;28;20561;-77
2021/10/22 08:29:27;;;;;;;3.17;1.98;;;9.60;99.90;;;;;;5012337;28;20207;-77
2021/10/22 08:31:53;;;;;;;4.63;2.17;;;9.90;99.90;;;;;;5013397;28;20215;-77
2021/10/22 08:34:18;;;;;;;6.72;1.73;;;10.20;99.90;;;;;;5012279;28;20169;-76
2021/10/22 08:36:44;;;;;;;9.50;1.65;;;10.40;99.90;;;;;;5012045;28;20222;-77
2021/10/22 08:39:11;;;;;;;8.57;1.98;;;10.40;99.90;;;;;;5013353;28;20322;-77
2021/10/22 08:41:37;;;;;;;10.10;1.65;;;10.30;99.90;;;;;;5013161;28;20169;-77
2021/10/22 08:44:04;;;;;;;11.45;2.50;;;10.20;99.90;;;;;;5012876;28;20168;-79
2021/10/22 08:46:31;;;;;;;12.13;2.08;;;10.30;99.90;;;;;;5011598;28;20176;-77
2021/10/22 08:48:58;;;;;;;7.22;2.03;;;10.30;99.90;;;;;;5013088;28;20184;-77
2021/10/22 08:51:25;;;;;;;4.05;1.90;;;10.20;99.90;;;;;;5011753;28;20200;-79
2021/10/22 08:53:51;;;;;;;6.50;1.65;;;10.10;99.90;;;;;;5012881;28;20563;-77
2021/10/22 08:56:20;;;;;;;7.78;1.60;;;10.10;99.90;;;;;;5013539;28;20252;-77
2021/10/22 08:58:46;;;;;;;5.68;1.63;;;10.20;99.90;;;;;;5011431;28;20207;-78
2021/10/22 09:01:13;;;;;;;6.90;1.88;;;10.30;99.90;;;;;;5012923;28;20165;-78
2021/10/22 09:03:40;;;;;;;7.85;2.15;;;10.40;99.90;;;;;;5012426;28;20256;-77
2021/10/22 09:06:14;;;;;;;4.35;1.88;;;10.50;99.90;;;;;;5012774;28;20164;-77
2021/10/22 09:08:44;;;;;;;6.22;1.40;;;10.50;99.90;;;;;;5012745;28;20218;-77
2021/10/22 09:11:23;;;;;;;8.00;2.75;;;10.30;99.90;;;;;;5012445;28;20640;-80
2021/10/22 09:14:04;;;;;;;4.57;1.73;;;10.30;99.90;;;;;;5012969;28;20179;-82
2021/10/22 09:16:30;;;;;;;9.73;2.05;;;10.40;99.90;;;;;;5012361;28;20582;-81
2021/10/22 09:18:58;;;;;;;7.78;1.75;;;10.30;99.90;;;;;;5012481;28;20215;-80
2021/10/22 09:21:32;;;;;;;6.38;1.77;;;10.30;99.90;;;;;;5010637;28;20578;-80
2021/10/22 09:24:18;;;;;;;3.55;1.83;;;10.30;99.90;;;;;;5012073;28;20203;-80
2021/10/22 09:26:54;;;;;;;12.27;2.60;;;10.50;99.90;;;;;;5012389;28;20164;-78
2021/10/22 09:29:25;;;;;;;10.35;2.00;;;10.70;99.90;;;;;;5014712;28;20180;-90
2021/10/22 09:31:52;;;;;;;8.10;2.25;;;10.60;99.90;;;;;;5013071;28;20172;-90
2021/10/22 09:34:35;;;;;;;3.50;2.08;;;10.70;99.90;;;;;;5011089;28;20230;-85
2021/10/22 09:37:10;;;;;;;6.70;1.77;;;10.90;99.90;;;;;;5013553;28;20209;-88
2021/10/22 09:39:37;;;;;;;9.07;2.08;;;10.90;99.90;;;;;;5014352;28;20188;-90
2021/10/22 09:42:08;;;;;;;3.80;1.40;;;10.80;99.90;;;;;;5014777;28;20164;-89
2021/10/22 09:44:42;;;;;;;8.52;2.13;;;10.80;99.90;;;;;;5013098;28;20203;-89
2021/10/22 09:47:08;;;;;;;6.20;1.70;;;10.90;99.90;;;;;;5011752;28;20172;-79
2021/10/22 09:49:42;;;;;;;10.68;2.40;;;10.90;99.90;;;;;;5011677;28;20527;-79
2021/10/22 09:52:28;;;;;;;8.77;1.67;;;11.00;99.90;;;;;;5013735;28;20179;-87
2021/10/22 09:55:08;;;;;;;7.82;1.98;;;11.10;99.90;;;;;;5013760;28;20165;-88
2021/10/22 09:57:35;;;;;;;4.13;1.85;;;11.20;99.90;;;;;;5015381;28;20588;-89
2021/10/22 10:00:20;;;;;;;8.50;2.53;;;11.30;99.90;;;;;;5016198;28;20161;-87
2021/10/22 10:02:46;;;;;;;8.80;1.75;;;11.30;99.90;;;;;;5014610;28;20235;-90
2021/10/22 10:05:12;;;;;;;12.10;1.77;;;11.50;99.90;;;;;;5014319;28;20168;-90
2021/10/22 10:07:43;;;;;;;4.70;1.38;;;11.60;99.90;;;;;;5013503;28;20275;-90
2021/10/22 10:10:10;;;;;;;4.35;1.27;;;11.70;99.90;;;;;;5014202;28;20197;-90
2021/10/22 10:12:37;;;;;;;2.95;1.65;;;11.70;99.90;;;;;;5017178;28;20177;-90
2021/10/22 10:15:05;;;;;;;4.43;1.23;;;11.70;99.90;;;;;;5016033;28;20184;-88
2021/10/22 10:17:34;;;;;;;4.95;1.52;;;11.80;99.90;;;;;;5024037;28;20196;-87
2021/10/22 10:20:02;;;;;;;8.88;1.92;;;11.90;99.90;;;;;;5031275;28;20186;-88
2021/10/22 10:22:31;;;;;;;9.30;2.67;;;11.80;99.90;;;;;;5015183;28;20536;-92
2021/10/22 10:25:05;;;;;;;6.90;1.83;;;11.80;99.90;;;;;;5014889;28;20160;-89
2021/10/22 10:27:47;;;;;;;5.20;1.65;;;11.90;99.90;;;;;;5017131;28;20275;-90
2021/10/22 10:30:27;;;;;;;8.23;1.90;;;12.00;99.90;;;;;;5018183;28;20172;-88
2021/10/22 10:32:53;;;;;;;13.40;2.22;;;11.90;99.90;;;;;;5016630;28;20572;-88
2021/10/22 10:35:18;;;;;;;8.68;2.22;;;11.90;99.90;;;;;;5017747;28;20168;-89
2021/10/22 10:37:54;;;;;;;9.30;1.73;;;11.80;99.90;;;;;;5016971;28;20251;-89
2021/10/22 10:40:29;;;;;;;15.15;1.80;;;11.80;99.90;;;;;;5022533;28;20164;-89
2021/10/22 10:43:04;;;;;;;8.40;1.42;;;11.80;99.90;;;;;;5018901;28;20160;-87
2021/10/22 10:45:29;;;;;;;13.75;1.67;;;11.80;99.90;;;;;;5018181;28;20226;-85
2021/10/22 10:48:18;;;;;;;17.90;2.80;;;12.00;99.90;;;;;;5016857;28;20540;-90
2021/10/22 10:50:59;;;;;;;6.03;1.48;;;12.20;99.90;;;;;;5018932;28;20173;-89
2021/10/22 10:53:36;;;;;;;4.38;1.67;;;12.40;99.90;;;;;;5020414;28;20180;-91
2021/10/22 10:56:08;;;;;;;4.90;1.30;;;12.50;99.90;;;;;;5016997;28;20222;-88
2021/10/22 10:58:45;;;;;;;12.10;1.15;;;12.60;99.90;;;;;;5017498;28;20204;-92
2021/10/22 11:01:25;;;;;;;12.68;2.53;;;12.60;99.90;;;;;;5017873;28;20698;-83
2021/10/22 11:03:51;;;;;;;14.50;2.42;;;12.70;99.90;;;;;;5018939;28;20160;-91
2021/10/22 11:06:44;;;;;;;12.57;1.63;;;12.70;99.90;;;;;;5018300;28;20252;-91
2021/10/22 11:09:15;;;;;;;5.10;1.13;;;12.80;99.90;;;;;;5016529;28;20199;-90
2021/10/22 11:11:41;;;;;;;6.72;1.60;;;12.80;99.90;;;;;;5017806;28;20211;-91
2021/10/22 11:14:08;;;;;;;4.88;1.52;;;12.90;99.90;;;;;;5019703;28;20173;-90
2021/10/22 11:16:44;;;;;;;6.95;2.10;;;13.00;99.90;;;;;;5020170;28;20675;-89
2021/10/22 11:19:17;;;;;;;6.70;1.55;;;13.00;99.90;;;;;;5016790;28;20211;-86
2021/10/22 11:21:46;;;;;;;7.85;2.28;;;12.90;99.90;;;;;;5016610;28;20820;-89
2021/10/22 11:24:45;;;;;;;8.10;2.08;;;12.70;99.90;;;;;;5016751;28;20180;-88
2021/10/22 11:27:15;;;;;;;4.63;1.40;;;12.80;99.90;;;;;;4995155;28;20196;-85
2021/10/22 11:29:43;;;;;;;7.40;1.80;;;12.80;99.90;;;;;;5018137;28;20167;-91
2021/10/22 11:32:11;;;;;;;12.25;1.48;;;12.80;99.90;;;;;;5017194;28;20179;-92
2021/10/22 11:34:44;;;;;;;13.95;1.40;;;12.70;99.90;;;;;;5015180;28;20183;-88
2021/10/22 11:37:15;;;;;;;8.65;1.48;;;12.80;99.90;;;;;;5015615;28;20264;-84
2021/10/22 11:39:49;;;;;;;5.50;1.05;;;13.00;99.90;;;;;;5017070;28;20192;-86
2021/10/22 11:42:30;;;;;;;5.00;2.15;;;12.90;99.90;;;;;;5016052;28;20251;-90
2021/10/22 11:45:06;;;;;;;2.33;1.00;;;13.10;99.90;;;;;;5015420;28;20179;-90
2021/10/22 11:47:40;;;;;;;3.95;1.90;;;13.10;99.90;;;;;;5016364;28;20628;-89
2021/10/22 11:50:27;;;;;;;2.63;1.42;;;13.20;99.90;;;;;;5015751;28;20562;-89
2021/10/22 11:53:04;;;;;;;5.80;1.85;;;13.30;99.90;;;;;;5015364;28;20175;-83
2021/10/22 11:55:31;;;;;;;6.13;1.85;;;13.30;99.90;;;;;;5016384;28;20258;-90
2021/10/22 11:58:23;;;;;;;8.38;1.52;;;13.50;99.90;;;;;;5016270;28;20208;-92
2021/10/22 12:00:50;;;;;;;4.95;1.50;;;13.40;99.90;;;;;;5016703;28;20632;-90
2021/10/22 12:03:36;;;;;;;2.55;1.23;;;13.40;99.90;;;;;;5017768;28;20179;-91
2021/10/22 12:06:02;;;;;;;1.88;1.05;;;13.50;99.90;;;;;;5016198;28;20168;-90
2021/10/22 12:08:35;;;;;;;2.20;1.27;;;13.20;99.90;;;;;;5015050;28;20203;-92
2021/10/22 12:11:04;;;;;;;3.15;1.13;;;13.10;99.90;;;;;;5016329;28;20635;-90
2021/10/22 12:13:33;;;;;;;4.35;1.42;;;13.10;99.90;;;;;;5015820;28;20342;-89
2021/10/22 12:16:20;;;;;;;6.50;1.50;;;13.20;99.90;;;;;;5015669;28;20191;-90
2021/10/22 12:18:50;;;;;;;5.45;1.27;;;13.30;99.90;;;;;;5015085;28;20552;-86
2021/10/22 12:21:16;;;;;;;2.60;1.00;;;13.30;99.90;;;;;;5015400;28;20239;-90
2021/10/22 12:23:42;;;;;;;6.18;1.60;;;13.40;99.90;;;;;;5015186;28;20638;-86
2021/10/22 12:26:22;;;;;;;3.22;1.25;;;13.40;99.90;;;;;;5014967;28;20160;-87
2021/10/22 12:29:08;;;;;;;1.67;0.98;;;13.30;99.90;;;;;;5015586;28;20229;-91
2021/10/22 12:31:45;;;;;;;3.28;1.65;;;13.30;99.90;;;;;;5014881;28;20263;-89
2021/10/22 12:34:31;;;;;;;5.07;1.00;;;13.40;99.90;;;;;;5014555;28;20676;-88
2021/10/22 12:37:09;;;;;;;4.45;1.10;;;13.50;99.90;;;;;;5016330;28;20731;-87
2021/10/22 12:39:44;;;;;;;6.57;1.38;;;13.70;99.90;;;;;;5014881;28;20595;-86
2021/10/22 12:42:36;;;;;;;5.35;1.45;;;13.70;99.90;;;;;;5015197;28;20597;-85
2021/10/22 12:45:13;;;;;;;6.53;1.48;;;13.60;99.90;;;;;;5013489;28;20276;-87
2021/10/22 12:47:40;;;;;;;2.42;1.20;;;13.60;99.90;;;;;;5016019;28;20188;-85
2021/10/22 12:50:06;;;;;;;4.47;1.33;;;13.40;99.90;;;;;;5015867;28;20168;-87
2021/10/22 12:52:32;;;;;;;6.30;1.05;;;13.20;99.90;;;;;;5016110;28;20191;-93
2021/10/22 12:54:58;;;;;;;7.90;1.45;;;13.20;99.90;;;;;;5015871;28;20191;-89
2021/10/22 12:57:25;;;;;;;8.32;1.50;;;13.30;99.90;;;;;;5015047;28;20200;-90
2021/10/22 12:59:51;;;;;;;7.22;1.45;;;13.20;99.90;;;;;;5015149;28;20172;-90
2021/10/22 13:02:28;;;;;;;4.90;1.30;;;13.20;99.90;;;;;;5016019;28;20171;-89
2021/10/22 13:05:08;;;;;;;9.05;1.17;;;13.20;99.90;;;;;;5015281;28;20171;-91